sensor_id;sensor_type;location;lat;lon;timestamp;temperature;humidity
19892;DHT22;10108;50.142;8.724;2023-04-24T00:00:31;12.70;99.90
19892;DHT22;10108;50.142;8.724;2023-04-24T00:02:57;12.80;99.90
19892;DHT22;10108;50.142;8.724;2023-04-24T00:05:25;12.80;99.90
19892;DHT22;10108;50.142;8.724;2023-04-24T00:07:51;12.80;99.90
19892;DHT22;10108;50.142;8.724;2023-04-24T00:10:21;12.80;99.90
19892;DHT22;10108;50.142;8.724;2023-04-24T00:12:47;12.90;99.90
19892;DHT22;10108;50.142;8.724;2023-04-24T00:15:13;12.90;99.90
19892;DHT22;10108;50.142;8.724;2023-04-24T00:17:39;12.90;99.90
19892;DHT22;10108;50.142;8.724;2023-04-24T00:20:06;12.90;99.90
19892;DHT22;10108;50.142;8.724;2023-04-24T00:22:32;12.90;99.90
19892;DHT22;10108;50.142;8.724;2023-04-24T00:24:59;12.90;99.90
19892;DHT22;10108;50.142;8.724;2023-04-24T00:27:25;12.90;99.90
19892;DHT22;10108;50.142;8.724;2023-04-24T00:29:51;12.90;99.90
19892;DHT22;10108;50.142;8.724;2023-04-24T00:32:17;12.90;99.90
19892;DHT22;10108;50.142;8.724;2023-04-24T00:34:43;12.90;99.90
19892;DHT22;10108;50.142;8.724;2023-04-24T00:37:09;12.90;99.90
19892;DHT22;10108;50.142;8.724;2023-04-24T00:39:36;12.90;99.90
19892;DHT22;10108;50.142;8.724;2023-04-24T00:42:03;12.90;99.90
19892;DHT22;10108;50.142;8.724;2023-04-24T00:44:29;12.90;99.90
19892;DHT22;10108;50.142;8.724;2023-04-24T00:46:55;12.80;99.90
19892;DHT22;10108;50.142;8.724;2023-04-24T00:49:22;12.80;99.90
19892;DHT22;10108;50.142;8.724;2023-04-24T00:51:48;12.80;99.90
19892;DHT22;10108;50.142;8.724;2023-04-24T00:54:15;12.90;99.90
19892;DHT22;10108;50.142;8.724;2023-04-24T00:56:42;12.90;99.90
19892;DHT22;10108;50.142;8.724;2023-04-24T00:59:10;12.90;99.90
19892;DHT22;10108;50.142;8.724;2023-04-24T01:01:36;12.90;99.90
19892;DHT22;10108;50.142;8.724;2023-04-24T01:04:03;12.80;99.90
19892;DHT22;10108;50.142;8.724;2023-04-24T01:06:29;12.90;99.90
19892;DHT22;10108;50.142;8.724;2023-04-24T01:08:58;12.80;99.90
19892;DHT22;10108;50.142;8.724;2023-04-24T01:11:25;12.90;99.90
19892;DHT22;10108;50.142;8.724;2023-04-24T01:13:51;12.90;99.90
19892;DHT22;10108;50.142;8.724;2023-04-24T01:16:18;12.80;99.90
19892;DHT22;10108;50.142;8.724;2023-04-24T01:18:47;12.90;99.90
19892;DHT22;10108;50.142;8.724;2023-04-24T01:21:14;12.80;99.90
19892;DHT22;10108;50.142;8.724;2023-04-24T01:23:45;12.80;99.90
19892;DHT22;10108;50.142;8.724;2023-04-24T01:26:13;12.80;99.90
19892;DHT22;10108;50.142;8.724;2023-04-24T01:28:39;12.80;99.90
19892;DHT22;10108;50.142;8.724;2023-04-24T01:31:06;12.80;99.90
19892;DHT22;10108;50.142;8.724;2023-04-24T01:33:32;12.80;99.90
19892;DHT22;10108;50.142;8.724;2023-04-24T01:35:58;12.80;99.90
19892;DHT22;10108;50.142;8.724;2023-04-24T01:38:25;12.80;99.90
19892;DHT22;10108;50.142;8.724;2023-04-24T01:40:53;12.80;99.90
19892;DHT22;10108;50.142;8.724;2023-04-24T01:43:19;12.70;99.90
19892;DHT22;10108;50.142;8.724;2023-04-24T01:45:46;12.80;99.90
19892;DHT22;10108;50.142;8.724;2023-04-24T01:48:12;12.80;99.90
19892;DHT22;10108;50.142;8.724;2023-04-24T01:50:39;12.80;99.90
19892;DHT22;10108;50.142;8.724;2023-04-24T01:53:05;12.80;99.90
19892;DHT22;10108;50.142;8.724;2023-04-24T01:55:31;12.80;99.90
19892;DHT22;10108;50.142;8.724;2023-04-24T01:57:59;12.80;99.90
19892;DHT22;10108;50.142;8.724;2023-04-24T02:00:25;12.80;99.90
19892;DHT22;10108;50.142;8.724;2023-04-24T02:02:52;12.70;99.90
19892;DHT22;10108;50.142;8.724;2023-04-24T02:05:19;12.80;99.90
19892;DHT22;10108;50.142;8.724;2023-04-24T02:07:45;12.80;99.90
19892;DHT22;10108;50.142;8.724;2023-04-24T02:10:11;12.70;99.90
19892;DHT22;10108;50.142;8.724;2023-04-24T02:12:42;12.70;99.90
19892;DHT22;10108;50.142;8.724;2023-04-24T02:15:08;12.70;99.90
19892;DHT22;10108;50.142;8.724;2023-04-24T02:17:37;12.70;99.90
19892;DHT22;10108;50.142;8.724;2023-04-24T02:20:05;12.80;99.90
19892;DHT22;10108;50.142;8.724;2023-04-24T02:22:31;12.70;99.90
19892;DHT22;10108;50.142;8.724;2023-04-24T02:25:01;12.80;99.90
19892;DHT22;10108;50.142;8.724;2023-04-24T02:27:27;12.70;99.90
19892;DHT22;10108;50.142;8.724;2023-04-24T02:29:53;12.70;99.90
19892;DHT22;10108;50.142;8.724;2023-04-24T02:32:20;12.70;99.90
19892;DHT22;10108;50.142;8.724;2023-04-24T02:34:46;12.70;99.90
19892;DHT22;10108;50.142;8.724;2023-04-24T02:37:12;12.70;99.90
19892;DHT22;10108;50.142;8.724;2023-04-24T02:39:38;12.70;99.90
19892;DHT22;10108;50.142;8.724;2023-04-24T02:42:04;12.70;99.90
19892;DHT22;10108;50.142;8.724;2023-04-24T02:44:31;12.70;99.90
19892;DHT22;10108;50.142;8.724;2023-04-24T02:46:57;12.70;99.90
19892;DHT22;10108;50.142;8.724;2023-04-24T02:49:23;12.70;99.90
19892;DHT22;10108;50.142;8.724;2023-04-24T02:51:49;12.60;99.90
19892;DHT22;10108;50.142;8.724;2023-04-24T02:54:15;12.60;99.90
19892;DHT22;10108;50.142;8.724;2023-04-24T02:56:41;12.60;99.90
19892;DHT22;10108;50.142;8.724;2023-04-24T02:59:08;12.60;99.90
19892;DHT22;10108;50.142;8.724;2023-04-24T03:01:34;12.60;99.90
19892;DHT22;10108;50.142;8.724;2023-04-24T03:04:01;12.50;99.90
19892;DHT22;10108;50.142;8.724;2023-04-24T03:06:27;12.50;99.90
19892;DHT22;10108;50.142;8.724;2023-04-24T03:08:53;12.50;99.90
19892;DHT22;10108;50.142;8.724;2023-04-24T03:11:20;12.50;99.90
19892;DHT22;10108;50.142;8.724;2023-04-24T03:13:46;12.50;99.90
19892;DHT22;10108;50.142;8.724;2023-04-24T03:16:13;12.50;99.90
19892;DHT22;10108;50.142;8.724;2023-04-24T03:18:39;12.60;99.90
19892;DHT22;10108;50.142;8.724;2023-04-24T03:21:07;12.60;99.90
19892;DHT22;10108;50.142;8.724;2023-04-24T03:23:33;12.60;99.90
19892;DHT22;10108;50.142;8.724;2023-04-24T03:25:59;12.60;99.90
19892;DHT22;10108;50.142;8.724;2023-04-24T03:28:26;12.60;99.90
19892;DHT22;10108;50.142;8.724;2023-04-24T03:30:57;12.60;99.90
19892;DHT22;10108;50.142;8.724;2023-04-24T03:33:25;12.60;99.90
19892;DHT22;10108;50.142;8.724;2023-04-24T03:35:58;12.60;99.90
19892;DHT22;10108;50.142;8.724;2023-04-24T03:38:25;12.60;99.90
19892;DHT22;10108;50.142;8.724;2023-04-24T03:41:06;12.50;99.90
19892;DHT22;10108;50.142;8.724;2023-04-24T03:43:38;12.50;99.90
19892;DHT22;10108;50.142;8.724;2023-04-24T03:46:05;12.50;99.90
19892;DHT22;10108;50.142;8.724;2023-04-24T03:48:36;12.50;99.90
19892;DHT22;10108;50.142;8.724;2023-04-24T03:51:02;12.50;99.90
19892;DHT22;10108;50.142;8.724;2023-04-24T03:53:30;12.50;99.90
19892;DHT22;10108;50.142;8.724;2023-04-24T03:55:56;12.50;99.90
19892;DHT22;10108;50.142;8.724;2023-04-24T03:58:23;12.50;99.90
19892;DHT22;10108;50.142;8.724;2023-04-24T04:00:50;12.50;99.90
19892;DHT22;10108;50.142;8.724;2023-04-24T04:03:37;12.50;99.90
19892;DHT22;10108;50.142;8.724;2023-04-24T04:06:03;12.50;99.90
19892;DHT22;10108;50.142;8.724;2023-04-24T04:08:29;12.50;99.90
19892;DHT22;10108;50.142;8.724;2023-04-24T04:10:56;12.50;99.90
19892;DHT22;10108;50.142;8.724;2023-04-24T04:13:23;12.50;99.90
19892;DHT22;10108;50.142;8.724;2023-04-24T04:15:49;12.60;99.90
19892;DHT22;10108;50.142;8.724;2023-04-24T04:18:16;12.50;99.90
19892;DHT22;10108;50.142;8.724;2023-04-24T04:20:42;12.50;99.90
19892;DHT22;10108;50.142;8.724;2023-04-24T04:23:09;12.50;99.90
19892;DHT22;10108;50.142;8.724;2023-04-24T04:25:51;12.50;99.90
19892;DHT22;10108;50.142;8.724;2023-04-24T04:28:19;12.50;99.90
19892;DHT22;10108;50.142;8.724;2023-04-24T04:30:47;12.50;99.90
19892;DHT22;10108;50.142;8.724;2023-04-24T04:33:13;12.50;99.90
19892;DHT22;10108;50.142;8.724;2023-04-24T04:35:40;12.40;99.90
19892;DHT22;10108;50.142;8.724;2023-04-24T04:38:07;12.40;99.90
19892;DHT22;10108;50.142;8.724;2023-04-24T04:40:47;12.30;99.90
19892;DHT22;10108;50.142;8.724;2023-04-24T04:43:15;12.30;99.90
19892;DHT22;10108;50.142;8.724;2023-04-24T04:45:48;12.20;99.90
19892;DHT22;10108;50.142;8.724;2023-04-24T04:48:27;12.20;99.90
19892;DHT22;10108;50.142;8.724;2023-04-24T04:50:55;12.20;99.90
19892;DHT22;10108;50.142;8.724;2023-04-24T04:53:22;12.10;99.90
19892;DHT22;10108;50.142;8.724;2023-04-24T04:55:48;12.10;99.90
19892;DHT22;10108;50.142;8.724;2023-04-24T04:58:16;12.10;99.90
19892;DHT22;10108;50.142;8.724;2023-04-24T05:00:43;12.00;99.90
19892;DHT22;10108;50.142;8.724;2023-04-24T05:03:18;12.00;99.90
19892;DHT22;10108;50.142;8.724;2023-04-24T05:05:44;11.90;99.90
19892;DHT22;10108;50.142;8.724;2023-04-24T05:08:13;11.90;99.90
19892;DHT22;10108;50.142;8.724;2023-04-24T05:10:39;11.80;99.90
19892;DHT22;10108;50.142;8.724;2023-04-24T05:13:06;11.90;99.90
19892;DHT22;10108;50.142;8.724;2023-04-24T05:16:03;11.90;99.90
19892;DHT22;10108;50.142;8.724;2023-04-24T05:18:55;11.90;99.90
19892;DHT22;10108;50.142;8.724;2023-04-24T05:21:46;12.00;99.90
19892;DHT22;10108;50.142;8.724;2023-04-24T05:24:40;11.90;99.90
19892;DHT22;10108;50.142;8.724;2023-04-24T05:27:34;11.90;99.90
19892;DHT22;10108;50.142;8.724;2023-04-24T05:30:26;11.90;99.90
19892;DHT22;10108;50.142;8.724;2023-04-24T05:33:20;11.90;99.90
19892;DHT22;10108;50.142;8.724;2023-04-24T05:36:12;11.90;99.90
19892;DHT22;10108;50.142;8.724;2023-04-24T05:39:04;11.90;99.90
19892;DHT22;10108;50.142;8.724;2023-04-24T05:41:56;12.00;99.90
19892;DHT22;10108;50.142;8.724;2023-04-24T05:47:36;12.00;99.90
19892;DHT22;10108;50.142;8.724;2023-04-24T05:50:02;11.90;99.90
19892;DHT22;10108;50.142;8.724;2023-04-24T05:52:29;12.00;99.90
19892;DHT22;10108;50.142;8.724;2023-04-24T05:54:55;12.00;99.90
19892;DHT22;10108;50.142;8.724;2023-04-24T05:57:47;12.00;99.90
19892;DHT22;10108;50.142;8.724;2023-04-24T06:00:38;11.90;99.90
19892;DHT22;10108;50.142;8.724;2023-04-24T06:03:32;11.80;99.90
19892;DHT22;10108;50.142;8.724;2023-04-24T06:06:24;11.90;99.90
19892;DHT22;10108;50.142;8.724;2023-04-24T06:09:15;11.90;99.90
19892;DHT22;10108;50.142;8.724;2023-04-24T06:12:12;11.90;99.90
19892;DHT22;10108;50.142;8.724;2023-04-24T06:15:06;12.00;99.90
19892;DHT22;10108;50.142;8.724;2023-04-24T06:17:58;11.90;99.90
19892;DHT22;10108;50.142;8.724;2023-04-24T06:20:50;12.00;99.90
19892;DHT22;10108;50.142;8.724;2023-04-24T06:23:41;12.10;99.90
19892;DHT22;10108;50.142;8.724;2023-04-24T06:26:36;12.00;99.90
19892;DHT22;10108;50.142;8.724;2023-04-24T06:29:27;11.90;99.90
19892;DHT22;10108;50.142;8.724;2023-04-24T06:32:19;12.00;99.90
19892;DHT22;10108;50.142;8.724;2023-04-24T06:35:11;11.90;99.90
19892;DHT22;10108;50.142;8.724;2023-04-24T06:38:03;11.90;99.90
19892;DHT22;10108;50.142;8.724;2023-04-24T06:40:54;12.10;99.90
19892;DHT22;10108;50.142;8.724;2023-04-24T06:43:46;12.10;99.90
19892;DHT22;10108;50.142;8.724;2023-04-24T06:46:40;12.20;99.90
19892;DHT22;10108;50.142;8.724;2023-04-24T06:49:32;12.20;99.90
19892;DHT22;10108;50.142;8.724;2023-04-24T06:52:26;12.20;99.90
19892;DHT22;10108;50.142;8.724;2023-04-24T06:55:19;12.20;99.90
19892;DHT22;10108;50.142;8.724;2023-04-24T06:58:14;12.20;99.90
19892;DHT22;10108;50.142;8.724;2023-04-24T07:01:06;12.10;99.90
19892;DHT22;10108;50.142;8.724;2023-04-24T07:03:57;12.10;99.90
19892;DHT22;10108;50.142;8.724;2023-04-24T07:06:23;12.00;99.90
19892;DHT22;10108;50.142;8.724;2023-04-24T07:08:50;11.90;99.90
19892;DHT22;10108;50.142;8.724;2023-04-24T07:11:16;12.00;99.90
19892;DHT22;10108;50.142;8.724;2023-04-24T07:13:42;12.00;99.90
19892;DHT22;10108;50.142;8.724;2023-04-24T07:16:09;12.00;99.90
19892;DHT22;10108;50.142;8.724;2023-04-24T07:18:36;12.00;99.90
19892;DHT22;10108;50.142;8.724;2023-04-24T07:21:03;11.90;99.90
19892;DHT22;10108;50.142;8.724;2023-04-24T07:23:29;11.90;99.90
19892;DHT22;10108;50.142;8.724;2023-04-24T07:25:56;11.90;99.90
19892;DHT22;10108;50.142;8.724;2023-04-24T07:28:22;12.00;99.90
19892;DHT22;10108;50.142;8.724;2023-04-24T07:30:48;12.00;99.90
19892;DHT22;10108;50.142;8.724;2023-04-24T07:33:15;12.10;99.90
19892;DHT22;10108;50.142;8.724;2023-04-24T07:35:41;12.10;99.90
19892;DHT22;10108;50.142;8.724;2023-04-24T07:38:07;12.10;99.90
19892;DHT22;10108;50.142;8.724;2023-04-24T07:40:33;12.10;99.90
19892;DHT22;10108;50.142;8.724;2023-04-24T07:42:59;12.20;99.90
19892;DHT22;10108;50.142;8.724;2023-04-24T07:45:25;12.20;99.90
19892;DHT22;10108;50.142;8.724;2023-04-24T07:47:53;12.30;99.90
19892;DHT22;10108;50.142;8.724;2023-04-24T07:50:20;12.30;99.90
19892;DHT22;10108;50.142;8.724;2023-04-24T07:52:46;12.30;99.90
19892;DHT22;10108;50.142;8.724;2023-04-24T07:55:13;12.40;99.90
19892;DHT22;10108;50.142;8.724;2023-04-24T07:57:40;12.40;99.90
19892;DHT22;10108;50.142;8.724;2023-04-24T08:00:06;12.50;99.90
19892;DHT22;10108;50.142;8.724;2023-04-24T08:02:37;12.50;99.90
19892;DHT22;10108;50.142;8.724;2023-04-24T08:05:04;12.60;99.90
19892;DHT22;10108;50.142;8.724;2023-04-24T08:07:30;12.70;99.90
19892;DHT22;10108;50.142;8.724;2023-04-24T08:09:56;12.80;99.90
19892;DHT22;10108;50.142;8.724;2023-04-24T08:12:23;12.80;99.90
19892;DHT22;10108;50.142;8.724;2023-04-24T08:14:49;12.90;99.90
19892;DHT22;10108;50.142;8.724;2023-04-24T08:17:16;12.90;99.90
19892;DHT22;10108;50.142;8.724;2023-04-24T08:19:43;12.80;99.90
19892;DHT22;10108;50.142;8.724;2023-04-24T08:22:14;12.80;99.90
19892;DHT22;10108;50.142;8.724;2023-04-24T08:24:41;12.80;99.90
19892;DHT22;10108;50.142;8.724;2023-04-24T08:27:08;12.80;99.90
19892;DHT22;10108;50.142;8.724;2023-04-24T08:29:34;12.80;99.90
19892;DHT22;10108;50.142;8.724;2023-04-24T08:32:00;12.70;99.90
19892;DHT22;10108;50.142;8.724;2023-04-24T08:34:26;12.60;99.90
19892;DHT22;10108;50.142;8.724;2023-04-24T08:36:53;12.50;99.90
19892;DHT22;10108;50.142;8.724;2023-04-24T08:39:19;12.50;99.90
19892;DHT22;10108;50.142;8.724;2023-04-24T08:41:47;12.40;99.90
19892;DHT22;10108;50.142;8.724;2023-04-24T08:44:14;12.60;99.90
19892;DHT22;10108;50.142;8.724;2023-04-24T08:46:43;12.60;99.90
19892;DHT22;10108;50.142;8.724;2023-04-24T08:49:14;12.70;99.90
19892;DHT22;10108;50.142;8.724;2023-04-24T08:51:42;12.90;99.90
19892;DHT22;10108;50.142;8.724;2023-04-24T08:54:08;13.00;99.90
19892;DHT22;10108;50.142;8.724;2023-04-24T08:56:37;13.10;99.90
19892;DHT22;10108;50.142;8.724;2023-04-24T08:59:06;13.10;99.90
19892;DHT22;10108;50.142;8.724;2023-04-24T09:01:33;13.10;99.90
19892;DHT22;10108;50.142;8.724;2023-04-24T09:04:02;13.10;99.90
19892;DHT22;10108;50.142;8.724;2023-04-24T09:06:30;13.10;99.90
19892;DHT22;10108;50.142;8.724;2023-04-24T09:09:00;13.10;99.90
19892;DHT22;10108;50.142;8.724;2023-04-24T09:11:27;13.10;99.90
19892;DHT22;10108;50.142;8.724;2023-04-24T09:13:54;13.00;99.90
19892;DHT22;10108;50.142;8.724;2023-04-24T09:16:21;13.00;99.90
19892;DHT22;10108;50.142;8.724;2023-04-24T09:18:49;12.90;99.90
19892;DHT22;10108;50.142;8.724;2023-04-24T09:21:15;12.80;99.90
19892;DHT22;10108;50.142;8.724;2023-04-24T09:23:41;12.80;99.90
19892;DHT22;10108;50.142;8.724;2023-04-24T09:26:09;12.90;99.90
19892;DHT22;10108;50.142;8.724;2023-04-24T09:28:37;12.90;99.90
19892;DHT22;10108;50.142;8.724;2023-04-24T09:31:11;13.00;99.90
19892;DHT22;10108;50.142;8.724;2023-04-24T09:33:38;13.00;99.90
19892;DHT22;10108;50.142;8.724;2023-04-24T09:36:05;13.10;99.90
19892;DHT22;10108;50.142;8.724;2023-04-24T09:41:00;13.00;99.90
19892;DHT22;10108;50.142;8.724;2023-04-24T09:43:27;13.10;99.90
19892;DHT22;10108;50.142;8.724;2023-04-24T09:45:56;13.10;99.90
19892;DHT22;10108;50.142;8.724;2023-04-24T09:51:34;13.00;99.90
19892;DHT22;10108;50.142;8.724;2023-04-24T09:54:04;13.00;99.90
19892;DHT22;10108;50.142;8.724;2023-04-24T09:56:33;13.00;99.90
19892;DHT22;10108;50.142;8.724;2023-04-24T09:59:06;12.90;99.90
19892;DHT22;10108;50.142;8.724;2023-04-24T10:01:33;13.00;99.90
19892;DHT22;10108;50.142;8.724;2023-04-24T10:03:59;12.90;99.90
19892;DHT22;10108;50.142;8.724;2023-04-24T10:06:35;12.90;99.90
19892;DHT22;10108;50.142;8.724;2023-04-24T10:09:02;12.90;99.90
19892;DHT22;10108;50.142;8.724;2023-04-24T10:11:30;12.80;99.90
19892;DHT22;10108;50.142;8.724;2023-04-24T10:13:56;12.80;99.90
19892;DHT22;10108;50.142;8.724;2023-04-24T10:16:23;12.90;99.90
19892;DHT22;10108;50.142;8.724;2023-04-24T10:18:50;12.90;99.90
19892;DHT22;10108;50.142;8.724;2023-04-24T10:21:17;12.90;99.90
19892;DHT22;10108;50.142;8.724;2023-04-24T10:23:43;12.90;99.90
19892;DHT22;10108;50.142;8.724;2023-04-24T10:26:13;12.80;99.90
19892;DHT22;10108;50.142;8.724;2023-04-24T10:28:45;12.80;99.90
19892;DHT22;10108;50.142;8.724;2023-04-24T10:31:13;12.80;99.90
19892;DHT22;10108;50.142;8.724;2023-04-24T10:33:43;12.80;99.90
19892;DHT22;10108;50.142;8.724;2023-04-24T10:36:10;12.80;99.90
19892;DHT22;10108;50.142;8.724;2023-04-24T10:38:39;12.80;99.90
19892;DHT22;10108;50.142;8.724;2023-04-24T10:41:08;12.70;99.90
19892;DHT22;10108;50.142;8.724;2023-04-24T10:43:35;12.70;99.90
19892;DHT22;10108;50.142;8.724;2023-04-24T10:46:03;12.60;99.90
19892;DHT22;10108;50.142;8.724;2023-04-24T10:48:30;12.40;99.90
19892;DHT22;10108;50.142;8.724;2023-04-24T10:50:56;12.20;99.90
19892;DHT22;10108;50.142;8.724;2023-04-24T10:53:28;12.10;99.90
19892;DHT22;10108;50.142;8.724;2023-04-24T10:56:05;11.90;99.90
19892;DHT22;10108;50.142;8.724;2023-04-24T11:01:06;11.60;99.90
19892;DHT22;10108;50.142;8.724;2023-04-24T11:03:34;11.40;99.90
19892;DHT22;10108;50.142;8.724;2023-04-24T11:06:08;11.30;99.90
19892;DHT22;10108;50.142;8.724;2023-04-24T11:08:44;11.30;99.90
19892;DHT22;10108;50.142;8.724;2023-04-24T11:11:16;11.50;99.90
19892;DHT22;10108;50.142;8.724;2023-04-24T11:21:47;11.80;99.90
19892;DHT22;10108;50.142;8.724;2023-04-24T11:24:27;12.00;99.90
19892;DHT22;10108;50.142;8.724;2023-04-24T11:26:55;12.10;99.90
19892;DHT22;10108;50.142;8.724;2023-04-24T11:29:23;12.20;99.90
19892;DHT22;10108;50.142;8.724;2023-04-24T11:34:56;12.50;99.90
19892;DHT22;10108;50.142;8.724;2023-04-24T11:37:25;12.60;99.90
19892;DHT22;10108;50.142;8.724;2023-04-24T11:39:53;12.70;99.90
19892;DHT22;10108;50.142;8.724;2023-04-24T11:42:21;12.80;99.90
19892;DHT22;10108;50.142;8.724;2023-04-24T11:44:49;12.90;99.90
19892;DHT22;10108;50.142;8.724;2023-04-24T11:47:16;13.10;99.90
19892;DHT22;10108;50.142;8.724;2023-04-24T11:49:42;13.20;99.90
19892;DHT22;10108;50.142;8.724;2023-04-24T11:52:08;13.20;99.90
19892;DHT22;10108;50.142;8.724;2023-04-24T11:54:34;13.30;99.90
19892;DHT22;10108;50.142;8.724;2023-04-24T11:57:04;13.30;99.90
19892;DHT22;10108;50.142;8.724;2023-04-24T11:59:36;13.30;99.90
19892;DHT22;10108;50.142;8.724;2023-04-24T12:02:03;13.10;99.90
19892;DHT22;10108;50.142;8.724;2023-04-24T12:04:41;13.00;99.90
19892;DHT22;10108;50.142;8.724;2023-04-24T12:07:07;12.70;99.90
19892;DHT22;10108;50.142;8.724;2023-04-24T12:09:44;12.60;99.90
19892;DHT22;10108;50.142;8.724;2023-04-24T12:12:16;12.40;99.90
19892;DHT22;10108;50.142;8.724;2023-04-24T12:14:54;12.20;99.90
19892;DHT22;10108;50.142;8.724;2023-04-24T12:17:29;12.20;99.90
19892;DHT22;10108;50.142;8.724;2023-04-24T12:20:06;12.10;99.90
19892;DHT22;10108;50.142;8.724;2023-04-24T12:25:25;11.90;99.90
19892;DHT22;10108;50.142;8.724;2023-04-24T12:27:57;11.80;99.90
19892;DHT22;10108;50.142;8.724;2023-04-24T12:30:46;11.60;99.90
19892;DHT22;10108;50.142;8.724;2023-04-24T12:33:20;11.50;99.90
19892;DHT22;10108;50.142;8.724;2023-04-24T12:35:48;11.50;99.90
19892;DHT22;10108;50.142;8.724;2023-04-24T12:38:15;11.40;99.90
19892;DHT22;10108;50.142;8.724;2023-04-24T12:40:43;11.40;99.90
19892;DHT22;10108;50.142;8.724;2023-04-24T12:43:19;11.30;99.90
19892;DHT22;10108;50.142;8.724;2023-04-24T12:45:47;11.30;99.90
19892;DHT22;10108;50.142;8.724;2023-04-24T12:48:13;11.40;99.90
19892;DHT22;10108;50.142;8.724;2023-04-24T12:50:40;11.40;99.90
19892;DHT22;10108;50.142;8.724;2023-04-24T12:53:08;11.40;99.90
19892;DHT22;10108;50.142;8.724;2023-04-24T12:55:35;11.40;99.90
19892;DHT22;10108;50.142;8.724;2023-04-24T12:58:01;11.40;99.90
19892;DHT22;10108;50.142;8.724;2023-04-24T13:00:29;11.50;99.90
19892;DHT22;10108;50.142;8.724;2023-04-24T13:02:55;11.70;99.90
19892;DHT22;10108;50.142;8.724;2023-04-24T13:05:21;11.80;99.90
19892;DHT22;10108;50.142;8.724;2023-04-24T13:07:48;12.00;99.90
19892;DHT22;10108;50.142;8.724;2023-04-24T13:10:14;12.10;99.90
19892;DHT22;10108;50.142;8.724;2023-04-24T13:12:41;12.20;99.90
19892;DHT22;10108;50.142;8.724;2023-04-24T13:15:11;12.50;99.90
19892;DHT22;10108;50.142;8.724;2023-04-24T13:17:37;12.70;99.90
19892;DHT22;10108;50.142;8.724;2023-04-24T13:20:04;12.90;99.90
19892;DHT22;10108;50.142;8.724;2023-04-24T13:22:31;13.00;99.90
19892;DHT22;10108;50.142;8.724;2023-04-24T13:24:57;13.10;99.90
19892;DHT22;10108;50.142;8.724;2023-04-24T13:27:23;13.20;99.90
19892;DHT22;10108;50.142;8.724;2023-04-24T13:29:49;13.20;99.90
19892;DHT22;10108;50.142;8.724;2023-04-24T13:32:15;13.20;99.90
19892;DHT22;10108;50.142;8.724;2023-04-24T13:34:42;13.20;99.90
19892;DHT22;10108;50.142;8.724;2023-04-24T13:37:08;13.10;99.90
19892;DHT22;10108;50.142;8.724;2023-04-24T13:39:35;13.10;99.90
19892;DHT22;10108;50.142;8.724;2023-04-24T13:42:01;13.10;99.90
19892;DHT22;10108;50.142;8.724;2023-04-24T13:44:28;13.10;99.90
19892;DHT22;10108;50.142;8.724;2023-04-24T13:46:55;13.00;99.90
19892;DHT22;10108;50.142;8.724;2023-04-24T13:49:23;12.70;99.90
19892;DHT22;10108;50.142;8.724;2023-04-24T13:51:54;12.10;99.90
19892;DHT22;10108;50.142;8.724;2023-04-24T13:54:21;11.70;99.90
19892;DHT22;10108;50.142;8.724;2023-04-24T13:56:49;11.40;99.90
19892;DHT22;10108;50.142;8.724;2023-04-24T13:59:15;11.40;99.90
19892;DHT22;10108;50.142;8.724;2023-04-24T14:01:42;11.40;99.90
19892;DHT22;10108;50.142;8.724;2023-04-24T14:04:08;11.50;99.90
19892;DHT22;10108;50.142;8.724;2023-04-24T14:06:34;11.50;99.90
19892;DHT22;10108;50.142;8.724;2023-04-24T14:09:00;11.60;99.90
19892;DHT22;10108;50.142;8.724;2023-04-24T14:11:26;11.70;99.90
19892;DHT22;10108;50.142;8.724;2023-04-24T14:13:54;11.80;99.90
19892;DHT22;10108;50.142;8.724;2023-04-24T14:16:22;12.00;99.90
19892;DHT22;10108;50.142;8.724;2023-04-24T14:18:48;12.20;99.90
19892;DHT22;10108;50.142;8.724;2023-04-24T14:21:14;12.40;99.90
19892;DHT22;10108;50.142;8.724;2023-04-24T14:23:40;12.60;99.90
19892;DHT22;10108;50.142;8.724;2023-04-24T14:26:07;12.80;99.90
19892;DHT22;10108;50.142;8.724;2023-04-24T14:28:33;12.90;99.90
19892;DHT22;10108;50.142;8.724;2023-04-24T14:30:59;13.00;99.90
19892;DHT22;10108;50.142;8.724;2023-04-24T14:33:26;13.00;99.90
19892;DHT22;10108;50.142;8.724;2023-04-24T14:35:52;13.00;99.90
19892;DHT22;10108;50.142;8.724;2023-04-24T14:38:18;13.10;99.90
19892;DHT22;10108;50.142;8.724;2023-04-24T14:40:44;13.00;99.90
19892;DHT22;10108;50.142;8.724;2023-04-24T14:43:11;13.00;99.90
19892;DHT22;10108;50.142;8.724;2023-04-24T14:45:37;13.00;99.90
19892;DHT22;10108;50.142;8.724;2023-04-24T14:48:03;13.00;99.90
19892;DHT22;10108;50.142;8.724;2023-04-24T14:50:30;12.90;99.90
19892;DHT22;10108;50.142;8.724;2023-04-24T14:52:56;12.90;99.90
19892;DHT22;10108;50.142;8.724;2023-04-24T14:55:24;12.80;99.90
19892;DHT22;10108;50.142;8.724;2023-04-24T14:57:50;12.80;99.90
19892;DHT22;10108;50.142;8.724;2023-04-24T15:00:17;12.70;99.90
19892;DHT22;10108;50.142;8.724;2023-04-24T15:02:43;12.60;99.90
19892;DHT22;10108;50.142;8.724;2023-04-24T15:05:10;12.50;99.90
19892;DHT22;10108;50.142;8.724;2023-04-24T15:07:38;12.50;99.90
19892;DHT22;10108;50.142;8.724;2023-04-24T15:10:05;12.60;99.90
19892;DHT22;10108;50.142;8.724;2023-04-24T15:12:31;12.70;99.90
19892;DHT22;10108;50.142;8.724;2023-04-24T15:14:58;12.80;99.90
19892;DHT22;10108;50.142;8.724;2023-04-24T15:17:25;12.90;99.90
19892;DHT22;10108;50.142;8.724;2023-04-24T15:19:52;13.00;99.90
19892;DHT22;10108;50.142;8.724;2023-04-24T15:22:19;13.10;99.90
19892;DHT22;10108;50.142;8.724;2023-04-24T15:24:45;13.20;99.90
19892;DHT22;10108;50.142;8.724;2023-04-24T15:27:12;13.10;99.90
19892;DHT22;10108;50.142;8.724;2023-04-24T15:29:38;13.10;99.90
19892;DHT22;10108;50.142;8.724;2023-04-24T15:32:04;13.00;99.90
19892;DHT22;10108;50.142;8.724;2023-04-24T15:34:30;13.00;99.90
19892;DHT22;10108;50.142;8.724;2023-04-24T15:36:59;13.00;99.90
19892;DHT22;10108;50.142;8.724;2023-04-24T15:39:25;12.90;99.90
19892;DHT22;10108;50.142;8.724;2023-04-24T15:41:52;12.90;99.90
19892;DHT22;10108;50.142;8.724;2023-04-24T15:44:20;12.90;99.90
19892;DHT22;10108;50.142;8.724;2023-04-24T15:46:47;12.80;99.90
19892;DHT22;10108;50.142;8.724;2023-04-24T15:49:13;12.90;99.90
19892;DHT22;10108;50.142;8.724;2023-04-24T15:51:39;12.90;99.90
19892;DHT22;10108;50.142;8.724;2023-04-24T15:54:05;12.90;99.90
19892;DHT22;10108;50.142;8.724;2023-04-24T15:56:32;13.00;99.90
19892;DHT22;10108;50.142;8.724;2023-04-24T15:58:59;13.00;99.90
19892;DHT22;10108;50.142;8.724;2023-04-24T16:01:25;13.00;99.90
19892;DHT22;10108;50.142;8.724;2023-04-24T16:03:51;13.00;99.90
19892;DHT22;10108;50.142;8.724;2023-04-24T16:06:18;13.10;99.90
19892;DHT22;10108;50.142;8.724;2023-04-24T16:08:44;13.00;99.90
19892;DHT22;10108;50.142;8.724;2023-04-24T16:11:11;13.00;99.90